createdAt,value
2023-04-07T00:02:06.524Z,73.99
2023-04-07T00:04:34.417Z,73.66
2023-04-07T00:07:01.182Z,74.03
2023-04-07T00:09:27.772Z,73.72
2023-04-07T00:11:54.375Z,74.47
2023-04-07T00:14:20.948Z,74.44
2023-04-07T00:16:47.652Z,75.03
2023-04-07T00:19:14.187Z,75.06
2023-04-07T00:21:41.145Z,75.12
2023-04-07T00:24:07.963Z,75.00
2023-04-07T00:26:34.552Z,75.04
2023-04-07T00:29:01.174Z,74.39
2023-04-07T00:31:27.836Z,75.06
2023-04-07T00:33:55.909Z,74.56
2023-04-07T00:36:23.330Z,74.44
2023-04-07T00:38:49.918Z,74.28
2023-04-07T00:41:16.789Z,74.16
2023-04-07T00:43:43.452Z,74.39
2023-04-07T00:46:10.141Z,74.54
2023-04-07T00:48:37.238Z,73.72
2023-04-07T00:51:05.248Z,73.90
2023-04-07T00:53:32.067Z,73.64
2023-04-07T00:55:58.792Z,73.35
2023-04-07T00:58:26.019Z,73.21
2023-04-07T01:01:04.972Z,73.09
2023-04-07T01:03:36.826Z,73.07
2023-04-07T01:06:06.935Z,73.33
2023-04-07T01:08:45.699Z,73.78
2023-04-07T01:11:53.476Z,74.43
2023-04-07T01:14:21.222Z,74.72
2023-04-07T01:16:53.839Z,74.97
2023-04-07T01:19:46.354Z,74.75
2023-04-07T01:22:17.345Z,75.15
2023-04-07T01:24:52.979Z,75.29
2023-04-07T01:27:38.308Z,75.23
2023-04-07T01:30:09.780Z,74.81
2023-04-07T01:32:37.979Z,74.72
2023-04-07T01:35:06.498Z,74.92
2023-04-07T01:37:33.923Z,74.61
2023-04-07T01:40:00.938Z,74.63
2023-04-07T01:42:28.980Z,74.22
2023-04-07T01:44:57.645Z,73.28
2023-04-07T01:47:27.815Z,72.38
2023-04-07T01:49:55.691Z,72.10
2023-04-07T01:52:22.544Z,72.48
2023-04-07T01:54:49.699Z,71.63
2023-04-07T01:57:16.301Z,71.88
2023-04-07T01:59:42.850Z,71.64
2023-04-07T02:02:09.674Z,71.60
2023-04-07T02:04:52.631Z,70.38
2023-04-07T02:07:25.324Z,69.88
2023-04-07T02:09:56.675Z,70.21
2023-04-07T02:12:26.425Z,70.29
2023-04-07T02:14:54.418Z,70.06
2023-04-07T02:17:23.786Z,69.67
2023-04-07T02:19:53.403Z,69.66
2023-04-07T02:22:19.989Z,69.05
2023-04-07T02:24:46.754Z,68.61
2023-04-07T02:27:13.494Z,68.55
2023-04-07T02:29:40.158Z,68.57
2023-04-07T02:32:07.005Z,68.11
2023-04-07T02:34:33.642Z,68.00
2023-04-07T02:37:00.376Z,68.31
2023-04-07T02:39:27.007Z,67.68
2023-04-07T02:41:53.548Z,67.85
2023-04-07T02:44:20.256Z,69.19
2023-04-07T02:46:46.852Z,74.64
2023-04-07T02:49:13.436Z,79.59
2023-04-07T02:51:40.129Z,82.39
2023-04-07T02:54:06.708Z,85.60
2023-04-07T02:56:33.525Z,88.74
2023-04-07T02:59:00.134Z,92.39
2023-04-07T03:01:28.021Z,93.59
2023-04-07T03:03:54.949Z,93.91
2023-04-07T03:06:21.664Z,89.18
2023-04-07T03:08:48.276Z,85.34
2023-04-07T03:11:14.842Z,80.45
2023-04-07T03:13:41.479Z,74.22
2023-04-07T03:16:08.080Z,72.17
2023-04-07T03:18:34.607Z,71.34
2023-04-07T03:21:01.115Z,69.72
2023-04-07T03:23:29.387Z,69.62
2023-04-07T03:25:57.692Z,69.03
2023-04-07T03:28:24.278Z,70.12
2023-04-07T03:30:50.944Z,69.82
2023-04-07T03:33:17.903Z,70.06
2023-04-07T03:35:44.722Z,69.90
2023-04-07T03:38:11.387Z,70.00
2023-04-07T03:40:37.937Z,70.18
2023-04-07T03:43:04.712Z,69.81
2023-04-07T03:45:31.311Z,69.74
2023-04-07T03:47:58.099Z,70.39
2023-04-07T03:50:24.906Z,70.00
2023-04-07T03:52:51.747Z,69.92
2023-04-07T03:55:18.274Z,70.27
2023-04-07T03:57:45.005Z,70.16
2023-04-07T04:00:12.858Z,69.66
2023-04-07T04:02:39.705Z,69.28
2023-04-07T04:05:06.564Z,69.06
2023-04-07T04:07:33.886Z,69.63
2023-04-07T04:10:00.554Z,69.65
2023-04-07T04:12:27.472Z,68.95
2023-04-07T04:14:54.198Z,69.23
2023-04-07T04:17:21.027Z,68.76
2023-04-07T04:19:47.728Z,68.69
2023-04-07T04:22:14.465Z,67.80
2023-04-07T04:24:42.031Z,68.24
2023-04-07T04:27:08.762Z,68.07
2023-04-07T04:29:35.433Z,67.94
2023-04-07T04:32:02.167Z,67.68
2023-04-07T04:34:28.734Z,67.82
2023-04-07T04:36:55.459Z,67.50
2023-04-07T04:39:22.132Z,67.06
2023-04-07T04:41:48.808Z,69.21
2023-04-07T04:44:15.519Z,75.00
2023-04-07T04:46:42.152Z,80.11
2023-04-07T04:49:08.893Z,83.35
2023-04-07T04:51:35.692Z,84.84
2023-04-07T04:54:03.943Z,83.79
2023-04-07T04:56:30.886Z,85.99
2023-04-07T04:58:57.603Z,84.99
2023-04-07T05:01:24.159Z,86.20
2023-04-07T05:03:50.946Z,86.67
2023-04-07T05:06:18.122Z,88.66
2023-04-07T05:08:44.865Z,89.16
2023-04-07T05:11:12.402Z,87.92
2023-04-07T05:13:39.080Z,86.74
2023-04-07T05:16:06.738Z,83.45
2023-04-07T05:18:33.459Z,82.07
2023-04-07T05:21:01.914Z,79.49
2023-04-07T05:23:28.661Z,73.48
2023-04-07T05:25:55.310Z,65.34
2023-04-07T05:28:22.433Z,65.20
2023-04-07T05:30:49.056Z,65.34
2023-04-07T05:33:15.788Z,65.66
2023-04-07T05:35:44.839Z,64.04
2023-04-07T05:38:11.960Z,63.77
2023-04-07T05:40:39.336Z,64.05
2023-04-07T05:43:06.167Z,64.77
2023-04-07T05:45:32.818Z,67.52
2023-04-07T05:47:59.420Z,70.97
2023-04-07T05:50:26.125Z,71.70
2023-04-07T05:52:52.760Z,71.26
2023-04-07T05:55:19.292Z,71.91
2023-04-07T05:57:46.158Z,73.19
2023-04-07T06:00:13.754Z,72.99
2023-04-07T06:02:40.522Z,70.37
2023-04-07T06:05:07.801Z,71.06
2023-04-07T06:07:34.501Z,67.03
2023-04-07T06:10:01.197Z,61.50
2023-04-07T06:12:27.958Z,59.90
2023-04-07T06:14:56.087Z,59.72
2023-04-07T06:17:23.759Z,60.02
2023-04-07T06:19:50.463Z,59.83
2023-04-07T06:22:17.100Z,57.75
2023-04-07T06:24:43.842Z,58.87
2023-04-07T06:27:10.630Z,57.54
2023-04-07T06:29:37.213Z,56.86
2023-04-07T06:32:03.967Z,54.03
2023-04-07T06:34:30.665Z,52.22
2023-04-07T06:36:58.355Z,51.16
2023-04-07T06:39:27.280Z,51.61
2023-04-07T06:41:53.845Z,51.89
2023-04-07T06:44:20.633Z,54.66
2023-04-07T06:46:49.486Z,55.39
2023-04-07T06:49:16.776Z,56.20
2023-04-07T06:51:43.334Z,56.87
2023-04-07T06:54:13.025Z,57.44
2023-04-07T06:56:43.128Z,57.27
2023-04-07T06:59:10.499Z,57.16
2023-04-07T07:01:38.017Z,56.71
2023-04-07T07:04:06.423Z,56.99
2023-04-07T07:06:33.282Z,57.19
2023-04-07T07:09:00.858Z,56.57
2023-04-07T07:11:27.417Z,56.37
2023-04-07T07:13:54.168Z,55.45
2023-04-07T07:16:21.250Z,54.61
2023-04-07T07:18:47.870Z,54.79
2023-04-07T07:21:14.449Z,55.17
2023-04-07T07:23:41.064Z,56.86
2023-04-07T07:26:07.973Z,57.44
2023-04-07T07:28:34.556Z,58.03
2023-04-07T07:31:01.197Z,58.40
2023-04-07T07:33:27.798Z,58.16
2023-04-07T07:35:54.396Z,58.83
2023-04-07T07:38:21.305Z,58.78
2023-04-07T07:40:47.938Z,58.69
2023-04-07T07:43:14.650Z,58.70
2023-04-07T07:45:41.318Z,58.15
2023-04-07T07:48:07.894Z,58.54
2023-04-07T07:50:34.590Z,59.12
2023-04-07T07:53:01.476Z,59.03
2023-04-07T07:55:28.165Z,59.51
2023-04-07T07:57:54.780Z,59.03
2023-04-07T08:00:21.487Z,59.50
2023-04-07T08:02:48.404Z,59.14
2023-04-07T08:05:15.873Z,58.99
2023-04-07T08:08:01.069Z,59.16
2023-04-07T08:10:27.760Z,58.88
2023-04-07T08:12:54.448Z,58.82
2023-04-07T08:15:21.439Z,58.85
2023-04-07T08:17:48.299Z,58.41
2023-04-07T08:20:15.281Z,57.97
2023-04-07T08:22:43.066Z,58.60
2023-04-07T08:25:10.700Z,57.86
2023-04-07T08:27:37.239Z,58.08
2023-04-07T08:30:09.000Z,58.02
2023-04-07T08:32:37.471Z,58.25
2023-04-07T08:35:04.440Z,58.04
2023-04-07T08:37:31.886Z,58.48
2023-04-07T08:39:58.553Z,58.23
2023-04-07T08:42:28.409Z,58.18
2023-04-07T08:44:59.344Z,58.10
2023-04-07T08:47:30.926Z,57.66
2023-04-07T08:50:02.004Z,57.71
2023-04-07T08:52:42.107Z,57.89
2023-04-07T08:55:09.475Z,57.13
2023-04-07T08:57:36.943Z,57.52
2023-04-07T09:00:08.140Z,57.79
2023-04-07T09:02:39.752Z,57.91
2023-04-07T09:05:09.023Z,58.12
2023-04-07T09:07:36.911Z,57.90
2023-04-07T09:10:04.421Z,57.33
2023-04-07T09:12:31.838Z,56.71
2023-04-07T09:14:58.857Z,57.11
2023-04-07T09:17:27.588Z,57.18
2023-04-07T09:20:01.053Z,56.78
2023-04-07T09:22:47.319Z,56.49
2023-04-07T09:25:17.529Z,57.13
2023-04-07T09:28:03.466Z,58.15
2023-04-07T09:30:32.180Z,58.15
2023-04-07T09:33:00.060Z,57.99
2023-04-07T09:35:28.487Z,57.59
2023-04-07T09:38:10.029Z,57.40
2023-04-07T09:40:37.660Z,57.24
2023-04-07T09:43:05.917Z,56.69
2023-04-07T09:45:35.766Z,57.97
2023-04-07T09:48:07.718Z,58.13
2023-04-07T09:50:36.209Z,57.85
2023-04-07T09:53:04.614Z,58.41
2023-04-07T09:55:33.902Z,58.25
2023-04-07T09:58:02.398Z,57.65
2023-04-07T10:00:28.962Z,57.30
2023-04-07T10:02:56.706Z,57.37
2023-04-07T10:05:24.143Z,57.04
2023-04-07T10:07:51.614Z,57.35
2023-04-07T10:10:18.397Z,57.56
2023-04-07T10:12:46.102Z,57.36
2023-04-07T10:15:16.613Z,57.51
2023-04-07T10:17:52.022Z,57.77
2023-04-07T10:20:21.530Z,57.08
2023-04-07T10:22:53.932Z,57.56
2023-04-07T10:25:24.249Z,58.51
2023-04-07T10:28:00.773Z,59.29
2023-04-07T10:30:32.508Z,59.48
2023-04-07T10:32:59.531Z,58.76
2023-04-07T10:35:26.378Z,58.79
2023-04-07T10:38:08.557Z,59.26
2023-04-07T10:40:36.596Z,60.45
2023-04-07T10:43:06.604Z,61.18
2023-04-07T10:45:58.013Z,61.07
2023-04-07T10:48:24.990Z,61.79
2023-04-07T10:51:07.055Z,62.01
2023-04-07T10:53:37.046Z,61.77
2023-04-07T10:56:03.822Z,62.56
2023-04-07T10:58:32.102Z,62.87
2023-04-07T11:01:04.838Z,62.77
2023-04-07T11:03:34.171Z,62.50
2023-04-07T11:06:12.868Z,61.96
2023-04-07T11:08:40.719Z,61.90
2023-04-07T11:11:11.664Z,61.52
2023-04-07T11:13:42.748Z,62.44
2023-04-07T11:16:10.091Z,61.97
2023-04-07T11:18:37.689Z,62.09
2023-04-07T11:21:08.388Z,61.88
2023-04-07T11:23:40.899Z,62.28
2023-04-07T11:26:09.411Z,61.93
2023-04-07T11:28:45.540Z,61.72
2023-04-07T11:31:12.729Z,62.44
2023-04-07T11:33:40.320Z,63.25
2023-04-07T11:36:07.785Z,63.46
2023-04-07T11:38:38.638Z,63.48
2023-04-07T11:41:14.100Z,63.03
2023-04-07T11:43:42.561Z,62.79
2023-04-07T11:46:11.397Z,63.21
2023-04-07T11:48:40.319Z,63.35
2023-04-07T11:51:15.628Z,63.68
2023-04-07T11:53:42.304Z,64.14
2023-04-07T11:56:12.221Z,63.65
2023-04-07T11:58:39.730Z,63.66
2023-04-07T12:01:09.023Z,63.61
2023-04-07T12:03:37.643Z,63.23
2023-04-07T12:06:05.015Z,62.83
2023-04-07T12:08:42.882Z,62.78
2023-04-07T12:11:10.220Z,62.66
2023-04-07T12:13:37.592Z,63.25
2023-04-07T12:16:04.590Z,63.12
2023-04-07T12:18:31.349Z,63.31
2023-04-07T12:20:59.175Z,63.86
2023-04-07T12:23:26.399Z,63.06
2023-04-07T12:25:53.059Z,63.10
2023-04-07T12:28:19.799Z,63.15
2023-04-07T12:30:46.408Z,64.03
2023-04-07T12:33:13.167Z,63.69
2023-04-07T12:35:40.566Z,64.20
2023-04-07T12:38:08.295Z,63.74
2023-04-07T12:40:35.991Z,63.45
2023-04-07T12:43:02.918Z,63.54
2023-04-07T12:45:31.172Z,63.68
2023-04-07T12:47:57.958Z,64.09
2023-04-07T12:50:25.395Z,63.93
2023-04-07T12:52:52.344Z,64.05
2023-04-07T12:55:19.025Z,65.28
2023-04-07T12:57:45.671Z,65.06
2023-04-07T13:00:12.675Z,65.06
2023-04-07T13:02:39.420Z,65.05
2023-04-07T13:05:06.477Z,64.49
2023-04-07T13:07:35.086Z,64.56
2023-04-07T13:10:02.102Z,64.41
2023-04-07T13:12:28.814Z,64.81
2023-04-07T13:15:00.285Z,65.29
2023-04-07T13:17:28.960Z,64.27
2023-04-07T13:19:56.284Z,64.00
2023-04-07T13:22:24.560Z,64.81
2023-04-07T13:24:51.556Z,64.79
2023-04-07T13:27:18.379Z,64.65
2023-04-07T13:29:45.126Z,65.10
2023-04-07T13:32:15.600Z,64.87
2023-04-07T13:34:42.500Z,64.95
2023-04-07T13:37:09.140Z,65.48
2023-04-07T13:39:36.412Z,64.72
2023-04-07T13:42:03.258Z,65.12
2023-04-07T13:44:30.026Z,64.98
2023-04-07T13:46:57.697Z,65.47
2023-04-07T13:49:24.548Z,65.89
2023-04-07T13:51:51.263Z,65.98
2023-04-07T13:54:18.633Z,66.48
2023-04-07T13:56:45.267Z,66.48
2023-04-07T13:59:12.282Z,66.62
2023-04-07T14:01:39.474Z,66.95
2023-04-07T14:04:06.854Z,67.24
2023-04-07T14:06:33.922Z,67.18
2023-04-07T14:09:00.858Z,67.70
2023-04-07T14:11:27.460Z,67.62
2023-04-07T14:13:56.534Z,67.33
2023-04-07T14:16:23.271Z,67.34
2023-04-07T14:18:51.632Z,67.77
2023-04-07T14:21:18.329Z,68.70
2023-04-07T14:23:44.899Z,68.49
2023-04-07T14:26:12.507Z,68.43
2023-04-07T14:28:39.479Z,68.52
2023-04-07T14:31:06.705Z,67.90
2023-04-07T14:33:33.316Z,68.64
2023-04-07T14:35:59.911Z,67.78
2023-04-07T14:38:27.380Z,67.78
2023-04-07T14:40:54.091Z,67.89
2023-04-07T14:43:20.654Z,68.18
2023-04-07T14:45:47.301Z,68.18
2023-04-07T14:48:14.144Z,68.16
2023-04-07T14:50:41.346Z,68.33
2023-04-07T14:53:08.556Z,68.70
2023-04-07T14:55:36.386Z,68.92
2023-04-07T14:58:03.556Z,70.13
2023-04-07T15:00:31.311Z,71.70
2023-04-07T15:03:02.264Z,73.63
2023-04-07T15:05:30.036Z,74.90
2023-04-07T15:07:57.274Z,76.24
2023-04-07T15:10:27.001Z,76.02
2023-04-07T15:12:53.553Z,76.46
2023-04-07T15:15:20.823Z,76.14
2023-04-07T15:17:47.483Z,75.64
2023-04-07T15:20:14.230Z,76.24
2023-04-07T15:22:41.025Z,76.06
2023-04-07T15:25:08.562Z,75.84
2023-04-07T15:27:35.478Z,76.25
2023-04-07T15:30:02.317Z,76.99
2023-04-07T15:32:31.662Z,77.76
2023-04-07T15:34:58.356Z,76.69
2023-04-07T15:37:25.419Z,75.67
2023-04-07T15:39:52.296Z,75.58
2023-04-07T15:42:18.941Z,73.52
2023-04-07T15:44:45.637Z,73.77
2023-04-07T15:47:12.190Z,74.15
2023-04-07T15:49:38.945Z,73.01
2023-04-07T15:52:05.967Z,72.58
2023-04-07T15:54:33.000Z,72.85
2023-04-07T15:56:59.756Z,73.58
2023-04-07T15:59:27.928Z,74.54
2023-04-07T16:01:54.655Z,72.68
2023-04-07T16:04:21.483Z,74.08
2023-04-07T16:06:48.058Z,75.76
2023-04-07T16:09:14.592Z,76.20
2023-04-07T16:11:41.225Z,76.09
2023-04-07T16:14:09.185Z,76.49
2023-04-07T16:16:37.278Z,76.14
2023-04-07T16:19:04.145Z,76.27
2023-04-07T16:21:31.495Z,76.41
2023-04-07T16:23:58.107Z,76.45
2023-04-07T16:26:24.747Z,76.04
2023-04-07T16:28:51.326Z,75.93
2023-04-07T16:31:17.956Z,75.51
2023-04-07T16:33:44.609Z,76.12
2023-04-07T16:36:11.559Z,74.88
2023-04-07T16:38:38.252Z,75.21
2023-04-07T16:41:07.571Z,76.64
2023-04-07T16:43:34.173Z,76.64
2023-04-07T16:46:00.782Z,76.09
2023-04-07T16:48:27.399Z,76.53
2023-04-07T16:50:53.974Z,76.75
2023-04-07T16:53:21.529Z,77.04
2023-04-07T16:55:48.324Z,77.17
2023-04-07T16:58:19.176Z,75.86
2023-04-07T17:00:46.556Z,76.61
2023-04-07T17:03:16.366Z,76.84
2023-04-07T17:05:44.699Z,76.61
2023-04-07T17:08:11.718Z,76.72
2023-04-07T17:10:38.389Z,77.86
2023-04-07T17:13:05.009Z,76.68
2023-04-07T17:15:31.658Z,75.81
2023-04-07T17:17:58.619Z,77.14
2023-04-07T17:20:25.406Z,77.65
2023-04-07T17:22:52.743Z,77.69
2023-04-07T17:25:19.321Z,77.56
2023-04-07T17:27:47.938Z,77.02
2023-04-07T17:30:14.848Z,77.80
2023-04-07T17:32:41.608Z,78.27
2023-04-07T17:35:08.533Z,79.13
2023-04-07T17:37:35.112Z,79.34
2023-04-07T17:40:01.824Z,78.69
2023-04-07T17:42:28.458Z,78.63
2023-04-07T17:44:55.111Z,79.15
2023-04-07T17:47:21.718Z,79.34
2023-04-07T17:49:48.496Z,79.87
2023-04-07T17:52:15.153Z,79.90
2023-04-07T17:54:42.202Z,79.89
2023-04-07T17:57:09.590Z,79.56
2023-04-07T17:59:36.171Z,80.31
2023-04-07T18:02:09.067Z,80.52
2023-04-07T18:04:37.359Z,81.05
2023-04-07T18:07:04.982Z,80.15
2023-04-07T18:09:32.528Z,80.42
2023-04-07T18:12:01.274Z,80.43
2023-04-07T18:14:28.546Z,80.48
2023-04-07T18:16:55.804Z,80.68
2023-04-07T18:19:25.657Z,80.42
2023-04-07T18:21:53.409Z,80.16
2023-04-07T18:24:20.868Z,80.11
2023-04-07T18:26:47.820Z,79.52
2023-04-07T18:29:15.083Z,79.66
2023-04-07T18:31:44.967Z,79.51
2023-04-07T18:34:12.273Z,77.88
2023-04-07T18:36:41.140Z,78.01
2023-04-07T18:39:07.894Z,77.16
2023-04-07T18:41:34.588Z,77.95
2023-04-07T18:44:01.325Z,77.52
2023-04-07T18:46:28.249Z,76.77
2023-04-07T18:48:54.894Z,77.37
2023-04-07T18:51:22.015Z,77.83
2023-04-07T18:53:48.814Z,77.42
2023-04-07T18:56:15.870Z,77.90
2023-04-07T18:58:45.059Z,78.58
2023-04-07T19:01:13.301Z,78.12
2023-04-07T19:03:41.674Z,77.94
2023-04-07T19:06:08.633Z,78.10
2023-04-07T19:08:36.873Z,78.46
2023-04-07T19:11:04.799Z,78.83
2023-04-07T19:13:31.392Z,79.59
2023-04-07T19:15:57.984Z,79.78
2023-04-07T19:18:25.328Z,80.23
2023-04-07T19:20:52.096Z,81.37
2023-04-07T19:23:18.652Z,81.73
2023-04-07T19:25:45.898Z,81.57
2023-04-07T19:28:13.218Z,81.81
2023-04-07T19:30:39.875Z,82.30
2023-04-07T19:33:06.897Z,83.66
2023-04-07T19:35:34.108Z,83.69
2023-04-07T19:38:00.977Z,85.01
2023-04-07T19:40:27.686Z,85.13
2023-04-07T19:42:56.160Z,85.48
2023-04-07T19:45:23.082Z,85.39
2023-04-07T19:47:49.787Z,85.40
2023-04-07T19:50:16.682Z,85.32
2023-04-07T19:52:45.279Z,85.12
2023-04-07T19:55:13.226Z,84.81
2023-04-07T19:57:43.243Z,85.30
2023-04-07T20:00:10.696Z,85.51
2023-04-07T20:02:37.498Z,85.74
2023-04-07T20:05:04.553Z,86.85
2023-04-07T20:07:32.019Z,86.64
2023-04-07T20:09:58.691Z,86.07
2023-04-07T20:12:25.647Z,85.89
2023-04-07T20:14:52.322Z,85.96
2023-04-07T20:17:19.948Z,86.36
2023-04-07T20:19:47.961Z,86.02
2023-04-07T20:22:14.553Z,85.38
2023-04-07T20:24:41.158Z,85.25
2023-04-07T20:27:07.775Z,85.51
2023-04-07T20:29:34.335Z,85.77
2023-04-07T20:32:01.143Z,85.83
2023-04-07T20:34:27.762Z,85.90
2023-04-07T20:36:54.393Z,85.00
2023-04-07T20:39:20.953Z,85.05
2023-04-07T20:41:47.781Z,84.96
2023-04-07T20:44:14.353Z,84.70
2023-04-07T20:46:42.088Z,84.21
2023-04-07T20:49:08.770Z,84.15
2023-04-07T20:51:38.496Z,83.55
2023-04-07T20:54:05.413Z,83.63
2023-04-07T20:56:32.205Z,83.38
2023-04-07T20:58:58.920Z,83.27
2023-04-07T21:01:25.714Z,82.83
2023-04-07T21:03:54.023Z,83.03
2023-04-07T21:06:21.392Z,83.29
2023-04-07T21:08:48.401Z,83.11
2023-04-07T21:11:15.631Z,83.00
2023-04-07T21:13:42.345Z,83.60
2023-04-07T21:16:09.391Z,83.20
2023-04-07T21:18:36.170Z,83.33
2023-04-07T21:21:03.066Z,83.39
2023-04-07T21:23:31.348Z,83.64
2023-04-07T21:26:02.193Z,84.20
2023-04-07T21:28:29.127Z,83.36
2023-04-07T21:30:56.789Z,82.67
2023-04-07T21:33:24.038Z,82.87
2023-04-07T21:35:51.774Z,83.29
2023-04-07T21:38:18.857Z,82.67
2023-04-07T21:40:45.490Z,82.62
2023-04-07T21:43:12.353Z,83.81
2023-04-07T21:45:39.506Z,85.43
2023-04-07T21:48:06.993Z,86.60
2023-04-07T21:50:33.984Z,88.31
2023-04-07T21:53:00.807Z,90.04
2023-04-07T21:55:27.851Z,92.30
2023-04-07T21:57:54.779Z,92.52
2023-04-07T22:00:22.073Z,93.70
2023-04-07T22:02:49.782Z,95.11
2023-04-07T22:05:17.016Z,94.81
2023-04-07T22:07:45.742Z,95.46
2023-04-07T22:10:12.904Z,97.28
2023-04-07T22:12:39.621Z,96.01
2023-04-07T22:15:07.117Z,95.42
2023-04-07T22:17:33.890Z,95.85
2023-04-07T22:20:00.573Z,95.01
2023-04-07T22:22:27.543Z,95.12
2023-04-07T22:24:54.282Z,93.43
2023-04-07T22:27:20.951Z,92.69
2023-04-07T22:29:47.583Z,93.62
2023-04-07T22:32:14.282Z,92.53
2023-04-07T22:34:40.908Z,90.90
2023-04-07T22:37:07.507Z,91.40
2023-04-07T22:39:34.149Z,91.87
2023-04-07T22:42:01.370Z,92.42
2023-04-07T22:44:28.450Z,91.82
2023-04-07T22:46:56.359Z,90.83
2023-04-07T22:49:23.210Z,89.87
2023-04-07T22:51:50.643Z,89.53
2023-04-07T22:54:17.844Z,90.53
2023-04-07T22:56:44.984Z,89.79
2023-04-07T22:59:11.570Z,90.16
2023-04-07T23:01:38.814Z,90.39
2023-04-07T23:04:05.436Z,90.80
2023-04-07T23:06:32.184Z,89.84
2023-04-07T23:08:59.166Z,90.35
2023-04-07T23:11:25.879Z,90.80
2023-04-07T23:13:52.476Z,91.40
2023-04-07T23:16:19.107Z,91.29
2023-04-07T23:18:46.086Z,92.80
2023-04-07T23:21:13.404Z,92.32
2023-04-07T23:23:40.084Z,93.42
2023-04-07T23:26:09.610Z,93.12
2023-04-07T23:28:36.673Z,92.81
2023-04-07T23:31:03.957Z,92.81
2023-04-07T23:33:31.776Z,92.65
2023-04-07T23:35:58.999Z,91.61
2023-04-07T23:38:26.297Z,90.37
2023-04-07T23:40:53.458Z,89.79
2023-04-07T23:43:20.076Z,90.67
2023-04-07T23:45:46.726Z,91.89
2023-04-07T23:48:13.458Z,91.65
2023-04-07T23:50:40.288Z,91.87
2023-04-07T23:53:06.933Z,91.38
2023-04-07T23:55:33.678Z,92.15
2023-04-07T23:58:00.452Z,92.90
